Time;durP1;ratioP1;P1;durP2;ratioP2;P2;SDS_P1;SDS_P2;PMS_P1;PMS_P2;Temp;Humidity;BMP_temperature;BMP_pressure;BME280_temperature;BME280_humidity;BME280_pressure;Samples;Min_cycle;Max_cycle;Signal;HPM_P1;HPM_P2
2022/01/30 00:00:53;;;;;;;22.35;18.83;;;;;;;;;;5014311;28;20045;-80
2022/01/30 00:03:18;;;;;;;22.88;19.60;;;;;;;;;;4996858;28;20404;-79
2022/01/30 00:05:44;;;;;;;23.30;18.13;;;;;;;;;;4997620;28;20033;-79
2022/01/30 00:08:09;;;;;;;22.35;18.67;;;;;;;;;;4997718;28;20063;-80
2022/01/30 00:10:40;;;;;;;21.85;17.17;;;;;;;;;;5014113;28;20091;-79
2022/01/30 00:13:08;;;;;;;22.25;16.92;;;;;;;;;;5014216;28;20049;-79
2022/01/30 00:15:48;;;;;;;23.73;17.77;;;;;;;;;;4998545;28;20503;-79
2022/01/30 00:23:26;;;;;;;21.58;16.60;;;;;;;;;;5014342;28;20045;-79
2022/01/30 00:25:55;;;;;;;18.55;14.50;;;;;;;;;;4998192;28;20061;-79
2022/01/30 00:28:23;;;;;;;20.90;15.80;;;;;;;;;;4997642;28;20041;-79
2022/01/30 00:30:49;;;;;;;20.20;14.95;;;;;;;;;;4998619;28;20436;-80
2022/01/30 00:33:15;;;;;;;19.30;14.30;;;;;;;;;;4972366;28;20042;-80
2022/01/30 00:35:40;;;;;;;19.17;13.85;;;;;;;;;;4993856;28;20404;-80
2022/01/30 00:38:11;;;;;;;18.33;13.45;;;;;;;;;;5014052;28;20511;-79
2022/01/30 00:40:36;;;;;;;20.73;13.10;;;;;;;;;;4998417;28;20065;-79
2022/01/30 00:43:02;;;;;;;20.63;14.35;;;;;;;;;;4996794;28;20150;-80
2022/01/30 00:45:27;;;;;;;19.50;13.88;;;;;;;;;;5011903;28;20037;-80
2022/01/30 00:47:53;;;;;;;19.30;12.98;;;;;;;;;;5017894;28;20029;-80
2022/01/30 00:50:18;;;;;;;17.60;12.98;;;;;;;;;;5001485;28;20041;-79
2022/01/30 00:52:49;;;;;;;15.55;13.00;;;;;;;;;;5001428;28;20403;-79
2022/01/30 00:55:14;;;;;;;16.48;12.07;;;;;;;;;;5003012;28;20116;-80
2022/01/30 00:57:40;;;;;;;14.95;11.88;;;;;;;;;;5001021;28;20043;-80
2022/01/30 01:00:06;;;;;;;17.88;12.50;;;;;;;;;;4997787;28;20086;-79
2022/01/30 01:02:32;;;;;;;15.13;11.60;;;;;;;;;;5000823;28;20450;-79
2022/01/30 01:05:03;;;;;;;19.42;12.20;;;;;;;;;;5017766;28;20120;-79
2022/01/30 01:07:29;;;;;;;18.05;12.15;;;;;;;;;;5002789;28;20392;-79
2022/01/30 01:10:03;;;;;;;16.80;12.15;;;;;;;;;;4984558;28;20040;-80
2022/01/30 01:13:02;;;;;;;15.30;10.77;;;;;;;;;;5017847;28;20085;-79
2022/01/30 01:23:35;;;;;;;15.20;9.73;;;;;;;;;;4986357;28;20041;-80
2022/01/30 01:26:01;;;;;;;13.57;9.65;;;;;;;;;;4983529;28;20041;-80
2022/01/30 01:28:26;;;;;;;14.48;10.98;;;;;;;;;;4987089;28;20042;-80
2022/01/30 01:30:52;;;;;;;13.23;10.35;;;;;;;;;;4981395;28;20037;-79
2022/01/30 01:33:18;;;;;;;13.95;9.50;;;;;;;;;;4980562;28;20417;-80
2022/01/30 01:35:44;;;;;;;13.18;8.57;;;;;;;;;;4981171;28;20026;-79
2022/01/30 01:38:12;;;;;;;12.55;8.98;;;;;;;;;;5013141;28;20044;-79
2022/01/30 01:40:44;;;;;;;12.73;9.23;;;;;;;;;;4981232;28;20037;-79
2022/01/30 01:43:09;;;;;;;11.23;8.30;;;;;;;;;;4983641;28;20507;-79
2022/01/30 01:45:38;;;;;;;11.75;8.60;;;;;;;;;;4980978;28;20034;-79
2022/01/30 01:48:10;;;;;;;11.52;8.30;;;;;;;;;;5014304;28;20043;-80
2022/01/30 01:50:38;;;;;;;12.80;8.75;;;;;;;;;;4982501;28;20034;-79
2022/01/30 01:53:08;;;;;;;11.80;8.38;;;;;;;;;;4997154;28;20050;-80
2022/01/30 01:55:34;;;;;;;14.98;8.82;;;;;;;;;;4987902;28;20121;-79
2022/01/30 01:58:00;;;;;;;12.30;7.95;;;;;;;;;;4996808;28;20040;-79
2022/01/30 02:00:25;;;;;;;14.18;8.10;;;;;;;;;;4982016;28;20033;-79
2022/01/30 02:02:53;;;;;;;12.40;7.93;;;;;;;;;;4980215;28;20121;-79
2022/01/30 02:05:18;;;;;;;12.10;7.43;;;;;;;;;;5013814;28;20034;-80
2022/01/30 02:10:24;;;;;;;11.57;7.50;;;;;;;;;;4997221;28;20045;-79
2022/01/30 02:12:53;;;;;;;11.02;6.65;;;;;;;;;;4997071;28;20088;-79
2022/01/30 02:25:58;;;;;;;9.90;6.15;;;;;;;;;;5018688;28;20049;-79
2022/01/30 02:28:25;;;;;;;9.18;5.97;;;;;;;;;;5016846;28;20045;-79
2022/01/30 02:31:05;;;;;;;11.48;6.43;;;;;;;;;;5014384;28;20064;-80
2022/01/30 02:33:31;;;;;;;9.10;6.13;;;;;;;;;;5001095;28;20076;-79
2022/01/30 02:35:56;;;;;;;11.40;6.32;;;;;;;;;;4988263;28;20492;-79
2022/01/30 02:38:25;;;;;;;10.48;5.97;;;;;;;;;;4995894;28;20046;-79
2022/01/30 02:40:53;;;;;;;11.38;5.78;;;;;;;;;;4979705;28;20523;-79
2022/01/30 02:43:23;;;;;;;10.70;5.82;;;;;;;;;;4997814;28;20051;-79
2022/01/30 02:46:20;;;;;;;9.63;5.63;;;;;;;;;;5011985;28;20038;-79
2022/01/30 02:48:54;;;;;;;8.65;5.65;;;;;;;;;;4998910;28;20046;-79
2022/01/30 02:51:22;;;;;;;9.75;6.07;;;;;;;;;;4999085;28;20119;-79
2022/01/30 02:54:02;;;;;;;8.85;5.35;;;;;;;;;;4995681;28;20053;-79
2022/01/30 02:56:28;;;;;;;8.77;5.05;;;;;;;;;;5015451;28;20034;-79
2022/01/30 02:58:53;;;;;;;9.45;4.90;;;;;;;;;;4995064;28;20180;-79
2022/01/30 03:01:19;;;;;;;10.93;5.25;;;;;;;;;;4995984;28;20404;-79
2022/01/30 03:03:46;;;;;;;10.90;5.20;;;;;;;;;;4979577;28;20074;-79
2022/01/30 03:06:12;;;;;;;9.18;5.10;;;;;;;;;;4996129;28;20165;-79
2022/01/30 03:08:37;;;;;;;11.20;5.07;;;;;;;;;;4995309;28;20129;-80
2022/01/30 03:11:03;;;;;;;8.45;4.85;;;;;;;;;;4979065;28;20234;-79
2022/01/30 03:13:29;;;;;;;9.65;4.72;;;;;;;;;;5011256;28;20042;-79
2022/01/30 03:15:56;;;;;;;11.15;6.00;;;;;;;;;;4996736;28;20030;-79
2022/01/30 03:18:21;;;;;;;8.52;4.82;;;;;;;;;;4995377;28;20069;-80
2022/01/30 03:20:48;;;;;;;9.85;5.05;;;;;;;;;;5012091;28;20101;-79
2022/01/30 03:23:13;;;;;;;9.80;4.65;;;;;;;;;;4995151;28;20158;-79
2022/01/30 03:25:39;;;;;;;9.05;4.28;;;;;;;;;;5011465;28;20455;-79
2022/01/30 03:28:05;;;;;;;7.78;3.88;;;;;;;;;;5010535;28;20045;-80
2022/01/30 03:30:31;;;;;;;11.13;5.03;;;;;;;;;;5011137;28;20025;-80
2022/01/30 03:32:57;;;;;;;9.25;4.45;;;;;;;;;;4978182;28;20042;-79
2022/01/30 03:35:22;;;;;;;8.68;4.68;;;;;;;;;;5004472;28;20048;-80
2022/01/30 03:37:48;;;;;;;9.07;4.47;;;;;;;;;;4997585;28;20076;-80
2022/01/30 03:40:13;;;;;;;8.63;4.30;;;;;;;;;;5011046;28;20053;-79
2022/01/30 03:42:39;;;;;;;8.40;4.10;;;;;;;;;;4991048;28;20053;-80
2022/01/30 03:45:05;;;;;;;9.32;4.95;;;;;;;;;;4982222;28;20052;-80
2022/01/30 03:47:30;;;;;;;6.90;3.72;;;;;;;;;;4982073;28;20029;-80
2022/01/30 03:49:56;;;;;;;9.55;4.55;;;;;;;;;;4981948;28;20487;-80
2022/01/30 03:52:21;;;;;;;8.95;3.80;;;;;;;;;;4997917;28;20049;-79
2022/01/30 03:54:47;;;;;;;8.40;3.80;;;;;;;;;;4997962;28;20083;-79
2022/01/30 03:57:13;;;;;;;7.80;3.70;;;;;;;;;;4986743;28;20041;-79
2022/01/30 03:59:38;;;;;;;9.38;4.97;;;;;;;;;;4978607;28;20038;-79
2022/01/30 04:02:04;;;;;;;6.78;3.05;;;;;;;;;;5012689;28;20041;-80
2022/01/30 04:04:31;;;;;;;9.10;4.07;;;;;;;;;;5014025;28;20032;-79
2022/01/30 04:06:57;;;;;;;7.57;3.28;;;;;;;;;;4998370;28;20476;-79
2022/01/30 04:09:24;;;;;;;7.90;3.97;;;;;;;;;;5006990;28;20612;-79
2022/01/30 04:11:49;;;;;;;8.05;3.60;;;;;;;;;;4977936;28;20168;-79
2022/01/30 04:14:15;;;;;;;8.00;3.80;;;;;;;;;;4994595;28;20034;-80
2022/01/30 04:16:41;;;;;;;8.43;3.58;;;;;;;;;;4994909;28;20408;-80
2022/01/30 04:19:07;;;;;;;6.75;3.72;;;;;;;;;;4993690;28;20037;-80
2022/01/30 04:21:32;;;;;;;7.97;4.45;;;;;;;;;;4994366;28;20451;-79
2022/01/30 04:23:58;;;;;;;6.18;3.05;;;;;;;;;;4985320;28;20034;-80
2022/01/30 04:26:23;;;;;;;7.10;3.00;;;;;;;;;;4993867;28;20409;-79
2022/01/30 04:28:49;;;;;;;6.93;3.40;;;;;;;;;;5011114;28;20091;-79
2022/01/30 04:31:15;;;;;;;6.18;3.03;;;;;;;;;;4994588;28;20153;-79
2022/01/30 04:33:40;;;;;;;7.00;3.45;;;;;;;;;;5010060;28;20053;-79
2022/01/30 04:36:09;;;;;;;7.47;3.35;;;;;;;;;;4994061;28;20030;-79
2022/01/30 04:38:55;;;;;;;7.72;3.60;;;;;;;;;;4994745;28;20030;-79
2022/01/30 05:00:59;;;;;;;7.60;3.35;;;;;;;;;;5010619;28;20057;-79
2022/01/30 05:03:28;;;;;;;7.75;3.35;;;;;;;;;;4993617;28;20050;-79
2022/01/30 05:06:04;;;;;;;7.57;3.35;;;;;;;;;;4997799;28;20038;-79
2022/01/30 05:08:30;;;;;;;6.90;3.25;;;;;;;;;;5008077;28;20519;-78
2022/01/30 05:10:55;;;;;;;7.28;2.95;;;;;;;;;;5011822;28;20064;-79
2022/01/30 05:13:24;;;;;;;6.15;2.65;;;;;;;;;;4996533;28;20038;-79
2022/01/30 05:15:50;;;;;;;7.32;2.58;;;;;;;;;;4981437;28;20029;-79
2022/01/30 05:18:23;;;;;;;6.55;2.53;;;;;;;;;;4996322;28;20040;-79
2022/01/30 05:20:49;;;;;;;7.68;2.78;;;;;;;;;;5013570;28;20494;-79
2022/01/30 05:23:16;;;;;;;8.30;2.80;;;;;;;;;;4977303;28;20080;-79
2022/01/30 05:25:45;;;;;;;5.65;2.50;;;;;;;;;;4994203;28;20041;-79
2022/01/30 05:28:11;;;;;;;5.35;2.75;;;;;;;;;;5023324;28;20044;-79
2022/01/30 05:30:37;;;;;;;7.22;2.97;;;;;;;;;;4981256;28;20391;-78
2022/01/30 05:33:03;;;;;;;7.50;3.17;;;;;;;;;;5000017;28;20071;-78
2022/01/30 05:35:28;;;;;;;6.53;2.53;;;;;;;;;;5023019;28;20029;-79
2022/01/30 05:37:54;;;;;;;5.10;2.30;;;;;;;;;;5000598;28;20045;-78
2022/01/30 05:40:20;;;;;;;6.75;2.80;;;;;;;;;;5016720;28;20037;-79
2022/01/30 05:42:46;;;;;;;7.60;2.55;;;;;;;;;;4971973;28;20177;-79
2022/01/30 05:47:43;;;;;;;7.18;3.05;;;;;;;;;;5012770;28;20116;-79
2022/01/30 05:50:10;;;;;;;8.27;3.22;;;;;;;;;;4982875;28;20053;-78
2022/01/30 05:52:35;;;;;;;6.38;2.55;;;;;;;;;;4996883;28;20515;-79
2022/01/30 05:55:01;;;;;;;8.38;3.05;;;;;;;;;;4997876;28;20049;-79
2022/01/30 05:57:27;;;;;;;5.82;2.50;;;;;;;;;;5013180;28;20037;-78
2022/01/30 05:59:52;;;;;;;5.68;2.75;;;;;;;;;;4980698;28;20037;-79
2022/01/30 06:02:17;;;;;;;6.70;2.60;;;;;;;;;;5003922;28;20132;-79
2022/01/30 06:04:43;;;;;;;5.72;2.30;;;;;;;;;;5000131;28;20038;-79
2022/01/30 06:07:10;;;;;;;7.88;2.58;;;;;;;;;;5000155;28;20087;-79
2022/01/30 06:09:36;;;;;;;6.35;2.70;;;;;;;;;;4983795;28;20033;-79
2022/01/30 06:12:01;;;;;;;5.70;3.35;;;;;;;;;;5015949;28;20045;-79
2022/01/30 06:14:27;;;;;;;5.80;2.40;;;;;;;;;;4983439;28;20030;-79
2022/01/30 06:16:53;;;;;;;5.70;2.30;;;;;;;;;;5000016;28;20065;-79
2022/01/30 06:19:19;;;;;;;6.10;2.45;;;;;;;;;;5016278;28;20122;-79
2022/01/30 06:21:49;;;;;;;6.97;2.63;;;;;;;;;;4997984;28;20042;-80
2022/01/30 06:24:14;;;;;;;8.30;2.95;;;;;;;;;;5015989;28;20037;-79
2022/01/30 06:26:40;;;;;;;4.45;1.85;;;;;;;;;;4999607;28;20397;-79
2022/01/30 06:29:05;;;;;;;6.97;2.20;;;;;;;;;;5015912;28;20112;-80
2022/01/30 06:31:31;;;;;;;5.35;2.92;;;;;;;;;;4982835;28;20041;-79
2022/01/30 06:33:56;;;;;;;5.82;2.30;;;;;;;;;;5013988;28;20038;-80
2022/01/30 06:36:21;;;;;;;7.40;2.55;;;;;;;;;;4987208;28;20042;-79
2022/01/30 06:38:47;;;;;;;7.30;2.17;;;;;;;;;;4996660;28;20057;-79
2022/01/30 06:41:13;;;;;;;5.28;2.15;;;;;;;;;;5000678;28;20161;-79
2022/01/30 06:43:38;;;;;;;5.53;2.13;;;;;;;;;;4963172;28;20040;-79
2022/01/30 06:46:04;;;;;;;7.15;2.95;;;;;;;;;;4990075;28;20120;-79
2022/01/30 06:48:29;;;;;;;8.13;2.75;;;;;;;;;;4986367;28;20041;-80
2022/01/30 06:50:55;;;;;;;7.05;2.63;;;;;;;;;;5011499;28;20504;-80
2022/01/30 06:53:20;;;;;;;7.55;3.80;;;;;;;;;;4996667;28;20385;-79
2022/01/30 06:55:46;;;;;;;5.32;2.60;;;;;;;;;;4980184;28;20117;-79
2022/01/30 06:58:12;;;;;;;6.43;2.17;;;;;;;;;;4992363;28;20030;-80
2022/01/30 07:00:37;;;;;;;4.20;1.98;;;;;;;;;;4991445;28;20100;-80
2022/01/30 07:03:03;;;;;;;9.07;2.40;;;;;;;;;;4993759;28;20530;-80
2022/01/30 07:05:28;;;;;;;5.95;2.30;;;;;;;;;;4982648;28;20037;-79
2022/01/30 07:07:54;;;;;;;5.80;2.45;;;;;;;;;;4999083;28;20034;-80
2022/01/30 07:10:20;;;;;;;7.07;2.55;;;;;;;;;;4998711;28;20033;-76
2022/01/30 07:12:45;;;;;;;8.18;2.42;;;;;;;;;;4990879;28;20072;-76
2022/01/30 07:15:11;;;;;;;5.78;2.60;;;;;;;;;;4995138;28;20038;-76
2022/01/30 07:17:36;;;;;;;9.07;2.58;;;;;;;;;;4979261;28;20052;-76
2022/01/30 07:20:03;;;;;;;6.88;2.60;;;;;;;;;;5012652;28;20042;-77
2022/01/30 07:22:29;;;;;;;5.63;1.90;;;;;;;;;;4965003;28;20026;-76
2022/01/30 07:24:54;;;;;;;7.63;2.65;;;;;;;;;;5023368;28;20041;-76
2022/01/30 07:27:20;;;;;;;7.03;2.40;;;;;;;;;;4996101;28;20037;-76
2022/01/30 07:29:45;;;;;;;6.05;2.35;;;;;;;;;;4978622;28;20050;-76
2022/01/30 07:32:11;;;;;;;5.13;2.45;;;;;;;;;;5001956;28;20392;-76
2022/01/30 07:34:36;;;;;;;5.45;2.20;;;;;;;;;;5017954;28;20147;-76
2022/01/30 07:37:02;;;;;;;4.50;1.90;;;;;;;;;;5004446;28;20389;-76
2022/01/30 07:39:30;;;;;;;5.90;2.22;;;;;;;;;;5021420;28;20068;-76
2022/01/30 07:41:55;;;;;;;6.82;2.50;;;;;;;;;;5004519;28;20065;-81
2022/01/30 07:44:21;;;;;;;4.72;2.35;;;;;;;;;;4986931;28;20508;-80
2022/01/30 07:46:47;;;;;;;6.05;2.03;;;;;;;;;;4987748;28;20034;-81
2022/01/30 07:49:12;;;;;;;6.10;2.35;;;;;;;;;;4994774;28;20476;-82
2022/01/30 07:51:38;;;;;;;7.40;2.03;;;;;;;;;;4978489;28;20045;-81
2022/01/30 07:54:03;;;;;;;5.53;2.20;;;;;;;;;;4993137;28;20045;-81
2022/01/30 07:56:29;;;;;;;6.80;2.45;;;;;;;;;;4986231;28;20120;-80
2022/01/30 07:58:54;;;;;;;7.40;2.33;;;;;;;;;;4984189;28;20045;-83
2022/01/30 08:01:20;;;;;;;9.18;2.40;;;;;;;;;;4976685;28;20034;-80
2022/01/30 08:03:45;;;;;;;8.38;2.55;;;;;;;;;;5000846;28;20038;-79
2022/01/30 08:06:10;;;;;;;8.30;2.13;;;;;;;;;;4999643;28;20052;-80
2022/01/30 08:08:36;;;;;;;9.02;3.47;;;;;;;;;;4984589;28;20116;-79
2022/01/30 08:11:01;;;;;;;8.25;2.53;;;;;;;;;;4995525;28;20636;-79
2022/01/30 08:13:27;;;;;;;13.50;3.05;;;;;;;;;;5004937;28;20041;-78
2022/01/30 08:15:53;;;;;;;10.70;3.40;;;;;;;;;;5006184;28;20130;-78
2022/01/30 08:18:19;;;;;;;12.63;3.13;;;;;;;;;;4986764;28;20451;-79
2022/01/30 08:20:44;;;;;;;13.43;2.65;;;;;;;;;;4988887;28;20505;-79
2022/01/30 08:23:15;;;;;;;15.52;3.65;;;;;;;;;;4998679;28;20034;-79
2022/01/30 08:25:42;;;;;;;12.85;2.95;;;;;;;;;;5003261;28;20112;-79
2022/01/30 08:28:07;;;;;;;16.90;3.33;;;;;;;;;;4995503;28;20044;-79
2022/01/30 08:30:33;;;;;;;11.77;2.25;;;;;;;;;;4995973;28;20037;-79
2022/01/30 08:32:59;;;;;;;12.10;3.17;;;;;;;;;;4995736;28;20052;-79
2022/01/30 08:35:25;;;;;;;10.68;3.45;;;;;;;;;;4992927;28;20046;-79
2022/01/30 08:37:50;;;;;;;9.05;2.95;;;;;;;;;;4989071;28;20033;-79
2022/01/30 08:40:18;;;;;;;14.35;2.88;;;;;;;;;;5013285;28;20045;-79
2022/01/30 08:42:43;;;;;;;11.50;2.53;;;;;;;;;;5004955;28;20045;-79
2022/01/30 08:45:09;;;;;;;10.38;2.47;;;;;;;;;;4993599;28;20416;-79
2022/01/30 08:47:34;;;;;;;12.60;3.50;;;;;;;;;;4995953;28;20022;-79
2022/01/30 08:50:00;;;;;;;7.80;2.33;;;;;;;;;;4998337;28;20052;-79
2022/01/30 08:52:25;;;;;;;12.60;3.08;;;;;;;;;;5010278;28;20034;-79
2022/01/30 08:54:51;;;;;;;9.52;2.63;;;;;;;;;;4979256;28;20034;-79
2022/01/30 08:57:17;;;;;;;11.52;4.00;;;;;;;;;;5010050;28;20409;-78
2022/01/30 08:59:42;;;;;;;13.55;2.95;;;;;;;;;;4979681;28;20069;-79
2022/01/30 09:02:08;;;;;;;14.38;4.03;;;;;;;;;;4997164;28;20033;-79
2022/01/30 09:04:33;;;;;;;11.13;3.03;;;;;;;;;;4997105;28;20037;-79
2022/01/30 09:06:59;;;;;;;11.73;2.50;;;;;;;;;;5013808;28;20100;-79
2022/01/30 09:09:25;;;;;;;8.95;2.60;;;;;;;;;;4991354;28;20033;-79
2022/01/30 09:11:51;;;;;;;8.57;2.30;;;;;;;;;;4981792;28;20041;-79
2022/01/30 09:14:16;;;;;;;12.40;3.35;;;;;;;;;;4997842;28;20611;-78
2022/01/30 09:16:43;;;;;;;8.68;2.90;;;;;;;;;;4998937;28;20547;-78
2022/01/30 09:19:09;;;;;;;12.00;2.97;;;;;;;;;;4997454;28;20516;-79
2022/01/30 09:21:34;;;;;;;14.77;3.67;;;;;;;;;;4999089;28;20054;-80
2022/01/30 09:24:00;;;;;;;10.02;2.72;;;;;;;;;;4986544;28;20045;-79
2022/01/30 09:26:25;;;;;;;13.25;3.00;;;;;;;;;;4989380;28;20049;-78
2022/01/30 09:28:50;;;;;;;17.65;3.22;;;;;;;;;;5001184;28;20038;-78
2022/01/30 09:31:16;;;;;;;12.88;3.65;;;;;;;;;;4996510;28;20426;-78
2022/01/30 09:33:41;;;;;;;10.63;2.65;;;;;;;;;;4987937;28;20407;-79
2022/01/30 09:36:07;;;;;;;12.13;3.38;;;;;;;;;;5032465;28;20505;-78
2022/01/30 09:38:32;;;;;;;12.75;2.83;;;;;;;;;;5016942;28;20042;-78
2022/01/30 09:40:58;;;;;;;11.00;3.70;;;;;;;;;;5000194;28;20046;-78
2022/01/30 09:43:24;;;;;;;9.68;2.90;;;;;;;;;;5009157;28;20057;-78
2022/01/30 09:45:50;;;;;;;9.40;2.40;;;;;;;;;;5013301;28;20095;-78
2022/01/30 09:48:16;;;;;;;13.23;2.75;;;;;;;;;;5020239;28;20037;-78
2022/01/30 09:50:42;;;;;;;13.85;3.75;;;;;;;;;;4999370;28;20132;-78
2022/01/30 09:53:07;;;;;;;12.27;3.22;;;;;;;;;;5016470;28;20660;-78
2022/01/30 09:55:33;;;;;;;11.38;3.00;;;;;;;;;;5016396;28;20041;-79
2022/01/30 09:57:59;;;;;;;14.50;2.85;;;;;;;;;;5016316;28;20053;-79
2022/01/30 10:00:24;;;;;;;14.20;3.53;;;;;;;;;;5030254;28;20485;-79
2022/01/30 10:02:50;;;;;;;12.65;3.22;;;;;;;;;;4989269;28;20044;-79
2022/01/30 10:05:16;;;;;;;11.13;2.67;;;;;;;;;;5032826;28;20037;-79
2022/01/30 10:07:45;;;;;;;12.60;3.45;;;;;;;;;;5029768;28;20413;-79
2022/01/30 10:10:12;;;;;;;14.00;3.05;;;;;;;;;;5019294;28;20127;-79
2022/01/30 10:13:13;;;;;;;14.07;3.25;;;;;;;;;;5019516;28;20041;-78
2022/01/30 10:15:57;;;;;;;13.52;3.53;;;;;;;;;;5031725;28;20077;-78
2022/01/30 10:18:24;;;;;;;14.38;3.97;;;;;;;;;;5015385;28;20041;-78
2022/01/30 10:20:49;;;;;;;12.55;3.13;;;;;;;;;;4997187;28;20527;-78
2022/01/30 10:23:15;;;;;;;12.77;3.28;;;;;;;;;;5028992;28;20125;-78
2022/01/30 10:25:51;;;;;;;12.13;3.17;;;;;;;;;;4996380;28;20042;-78
2022/01/30 10:28:28;;;;;;;14.00;3.65;;;;;;;;;;5010910;28;20026;-78
2022/01/30 10:30:59;;;;;;;11.27;2.80;;;;;;;;;;5012541;28;20067;-78
2022/01/30 10:33:47;;;;;;;11.30;3.75;;;;;;;;;;5012040;28;20041;-78
2022/01/30 10:36:23;;;;;;;13.73;2.85;;;;;;;;;;4996875;28;20518;-78
2022/01/30 10:39:02;;;;;;;13.90;3.75;;;;;;;;;;5029226;28;20053;-78
2022/01/30 10:41:34;;;;;;;12.60;3.10;;;;;;;;;;4996339;28;20041;-78
2022/01/30 10:44:07;;;;;;;8.93;2.50;;;;;;;;;;4996264;28;20034;-78
2022/01/30 10:46:44;;;;;;;14.75;3.28;;;;;;;;;;4999880;28;20041;-75
2022/01/30 10:49:16;;;;;;;18.70;4.30;;;;;;;;;;5014211;28;20033;-76
2022/01/30 10:51:52;;;;;;;28.02;5.50;;;;;;;;;;5010775;28;20416;-75
2022/01/30 10:54:17;;;;;;;21.52;4.45;;;;;;;;;;4998367;28;20399;-79
2022/01/30 10:56:43;;;;;;;14.68;4.25;;;;;;;;;;5031579;28;20046;-78
2022/01/30 10:59:08;;;;;;;16.85;3.60;;;;;;;;;;4999382;28;20077;-78
2022/01/30 11:01:33;;;;;;;19.52;3.58;;;;;;;;;;5028831;28;20124;-78
2022/01/30 11:04:00;;;;;;;17.02;4.15;;;;;;;;;;4996689;28;20042;-78
2022/01/30 11:06:29;;;;;;;16.38;3.85;;;;;;;;;;5011487;28;20065;-79
2022/01/30 11:09:04;;;;;;;12.00;3.03;;;;;;;;;;5012004;28;20061;-78
2022/01/30 11:11:38;;;;;;;12.48;3.22;;;;;;;;;;5011309;28;20050;-78
2022/01/30 11:19:17;;;;;;;24.70;5.38;;;;;;;;;;5016580;28;20038;-82
2022/01/30 11:21:44;;;;;;;15.90;3.42;;;;;;;;;;5014934;28;20140;-82
2022/01/30 11:24:12;;;;;;;14.30;3.50;;;;;;;;;;5014837;28;20048;-81
2022/01/30 11:26:38;;;;;;;16.50;3.10;;;;;;;;;;5014955;28;20038;-81
2022/01/30 11:29:07;;;;;;;17.80;5.00;;;;;;;;;;4975048;28;20144;-80
2022/01/30 11:31:33;;;;;;;16.73;3.80;;;;;;;;;;4979641;28;20554;-80
2022/01/30 11:33:58;;;;;;;14.38;4.22;;;;;;;;;;4993252;28;20125;-80
2022/01/30 11:36:23;;;;;;;11.98;4.10;;;;;;;;;;5010188;28;20046;-79
2022/01/30 11:38:49;;;;;;;13.45;3.80;;;;;;;;;;5015631;28;20041;-80
2022/01/30 11:41:16;;;;;;;11.02;3.22;;;;;;;;;;4994230;28;20415;-80
2022/01/30 11:44:01;;;;;;;16.15;3.03;;;;;;;;;;5011182;28;20134;-80
2022/01/30 11:46:27;;;;;;;17.85;3.42;;;;;;;;;;5019093;28;20140;-79
2022/01/30 11:49:12;;;;;;;12.95;3.50;;;;;;;;;;5003935;28;20591;-80
2022/01/30 11:51:53;;;;;;;14.25;3.28;;;;;;;;;;5027469;28;20045;-79
2022/01/30 11:54:38;;;;;;;10.10;3.40;;;;;;;;;;5006002;28;20045;-79
2022/01/30 11:57:29;;;;;;;9.55;2.67;;;;;;;;;;5018616;28;20515;-80
2022/01/30 11:59:56;;;;;;;9.80;3.80;;;;;;;;;;5026864;28;20117;-79
2022/01/30 12:02:31;;;;;;;12.10;2.72;;;;;;;;;;4997937;28;20029;-80
2022/01/30 12:05:04;;;;;;;15.27;3.28;;;;;;;;;;5014064;28;20041;-80
2022/01/30 12:07:40;;;;;;;17.17;2.97;;;;;;;;;;4998213;28;20075;-79
2022/01/30 12:10:26;;;;;;;12.90;3.03;;;;;;;;;;5014058;28;20459;-79
2022/01/30 12:13:02;;;;;;;12.25;2.88;;;;;;;;;;5010375;28;20050;-79
2022/01/30 12:15:40;;;;;;;8.63;2.67;;;;;;;;;;4995365;28;20412;-79
2022/01/30 12:18:06;;;;;;;8.88;2.67;;;;;;;;;;5010502;28;20042;-79
2022/01/30 12:20:59;;;;;;;8.05;2.67;;;;;;;;;;4978219;28;20034;-79
2022/01/30 12:23:26;;;;;;;12.88;2.78;;;;;;;;;;5011899;28;20026;-80
2022/01/30 12:25:53;;;;;;;10.55;3.58;;;;;;;;;;4994091;28;20120;-79
2022/01/30 12:28:18;;;;;;;11.82;3.28;;;;;;;;;;4994717;28;20068;-79
2022/01/30 12:30:47;;;;;;;12.50;3.10;;;;;;;;;;4994550;28;20046;-80
2022/01/30 12:33:36;;;;;;;11.35;2.95;;;;;;;;;;4994367;28;20038;-79
2022/01/30 12:36:03;;;;;;;10.20;2.72;;;;;;;;;;5007154;28;20068;-79
2022/01/30 12:38:32;;;;;;;9.90;2.50;;;;;;;;;;5024352;28;20042;-79
2022/01/30 12:40:58;;;;;;;9.07;2.10;;;;;;;;;;4980340;28;20073;-79
2022/01/30 12:43:31;;;;;;;10.57;2.55;;;;;;;;;;5014526;28;20038;-80
2022/01/30 12:46:06;;;;;;;7.38;2.30;;;;;;;;;;4998914;28;20041;-78
2022/01/30 12:48:32;;;;;;;14.40;3.05;;;;;;;;;;5009899;28;20033;-78
2022/01/30 12:51:02;;;;;;;16.65;3.70;;;;;;;;;;4981820;28;20045;-79
2022/01/30 12:53:28;;;;;;;16.67;2.40;;;;;;;;;;4998240;28;20108;-78
2022/01/30 12:55:53;;;;;;;12.90;2.67;;;;;;;;;;4998159;28;20503;-78
2022/01/30 12:58:19;;;;;;;12.07;2.70;;;;;;;;;;4980150;28;20762;-78
2022/01/30 13:00:44;;;;;;;11.98;2.95;;;;;;;;;;4996232;28;20269;-78
2022/01/30 13:03:18;;;;;;;14.93;3.25;;;;;;;;;;5005428;28;20068;-78
2022/01/30 13:05:44;;;;;;;10.70;3.03;;;;;;;;;;5001539;28;20068;-78
2022/01/30 13:08:09;;;;;;;13.85;2.95;;;;;;;;;;4982908;28;20515;-78
2022/01/30 13:10:35;;;;;;;12.65;2.63;;;;;;;;;;5011122;28;20050;-78
2022/01/30 13:13:03;;;;;;;8.48;2.58;;;;;;;;;;5030418;28;20390;-78
2022/01/30 13:15:32;;;;;;;11.38;2.83;;;;;;;;;;5014044;28;20047;-78
2022/01/30 13:18:00;;;;;;;9.20;2.42;;;;;;;;;;5012581;28;20068;-78
2022/01/30 13:20:26;;;;;;;9.40;2.03;;;;;;;;;;4980972;28;20088;-78
2022/01/30 13:22:52;;;;;;;9.88;2.13;;;;;;;;;;5014121;28;20034;-78
2022/01/30 13:25:19;;;;;;;13.35;2.28;;;;;;;;;;5008842;28;20145;-78
2022/01/30 13:27:49;;;;;;;8.23;2.63;;;;;;;;;;4997053;28;20062;-78
2022/01/30 13:30:22;;;;;;;8.43;2.08;;;;;;;;;;4997125;28;20038;-79
2022/01/30 13:32:47;;;;;;;11.55;2.63;;;;;;;;;;5013236;28;20041;-78
2022/01/30 13:35:14;;;;;;;9.45;2.13;;;;;;;;;;5013758;28;20518;-78
2022/01/30 13:37:41;;;;;;;7.35;3.13;;;;;;;;;;5013548;28;20096;-78
2022/01/30 13:40:19;;;;;;;11.48;3.28;;;;;;;;;;4997616;28;20558;-78
2022/01/30 13:47:56;;;;;;;7.25;1.70;;;;;;;;;;5013655;28;20041;-78
2022/01/30 13:50:31;;;;;;;9.48;2.58;;;;;;;;;;5013604;28;20447;-78
2022/01/30 13:53:10;;;;;;;5.53;2.30;;;;;;;;;;5019761;28;20045;-78
2022/01/30 13:56:07;;;;;;;5.55;1.58;;;;;;;;;;5016374;28;20037;-78
2022/01/30 13:58:43;;;;;;;8.18;1.90;;;;;;;;;;5017060;28;20080;-78
2022/01/30 14:01:12;;;;;;;5.97;2.17;;;;;;;;;;5032704;28;20072;-78
2022/01/30 14:03:39;;;;;;;9.18;2.40;;;;;;;;;;5032579;28;20488;-78
2022/01/30 14:06:22;;;;;;;7.97;2.75;;;;;;;;;;5000303;28;20416;-78
2022/01/30 14:08:59;;;;;;;6.68;2.63;;;;;;;;;;5013321;28;20041;-78
2022/01/30 14:11:29;;;;;;;9.00;1.90;;;;;;;;;;5012980;28;20038;-78
2022/01/30 14:13:59;;;;;;;6.40;1.92;;;;;;;;;;4996901;28;20078;-78
2022/01/30 14:16:36;;;;;;;7.50;2.67;;;;;;;;;;4997418;28;20104;-79
2022/01/30 14:19:02;;;;;;;7.70;1.80;;;;;;;;;;4996451;28;20403;-78
2022/01/30 14:21:31;;;;;;;7.60;2.20;;;;;;;;;;5016196;28;20037;-78
2022/01/30 14:23:57;;;;;;;6.13;1.95;;;;;;;;;;5015984;28;20109;-78
2022/01/30 14:26:29;;;;;;;6.85;2.03;;;;;;;;;;5016036;28;20116;-78
2022/01/30 14:29:25;;;;;;;7.32;2.10;;;;;;;;;;4984196;28;20033;-78
2022/01/30 14:31:54;;;;;;;7.60;2.55;;;;;;;;;;5019504;28;20054;-78
2022/01/30 14:34:20;;;;;;;6.15;2.17;;;;;;;;;;5000337;28;20116;-78
2022/01/30 14:36:46;;;;;;;5.95;2.03;;;;;;;;;;5015976;28;20038;-78
2022/01/30 14:39:11;;;;;;;8.05;1.90;;;;;;;;;;4999374;28;20041;-78
2022/01/30 14:41:37;;;;;;;5.60;2.00;;;;;;;;;;4999120;28;20064;-78
2022/01/30 14:44:03;;;;;;;5.07;2.05;;;;;;;;;;5015486;28;20518;-78
2022/01/30 14:46:28;;;;;;;5.88;1.98;;;;;;;;;;4969148;28;20041;-78
2022/01/30 14:48:53;;;;;;;7.00;2.03;;;;;;;;;;4995814;28;20480;-78
2022/01/30 14:51:19;;;;;;;5.85;2.15;;;;;;;;;;4995900;28;20111;-78
2022/01/30 14:53:44;;;;;;;5.85;2.28;;;;;;;;;;4996511;28;20042;-78
2022/01/30 14:56:10;;;;;;;6.00;1.92;;;;;;;;;;5031889;28;20488;-78
2022/01/30 14:58:35;;;;;;;7.57;2.15;;;;;;;;;;5015117;28;20034;-78
2022/01/30 15:01:00;;;;;;;6.78;1.60;;;;;;;;;;4999039;28;20033;-78
2022/01/30 15:03:28;;;;;;;6.40;2.58;;;;;;;;;;4982241;28;20082;-78
2022/01/30 15:05:53;;;;;;;5.30;1.70;;;;;;;;;;5015466;28;20041;-78
2022/01/30 15:08:19;;;;;;;8.70;3.13;;;;;;;;;;5015058;28;20518;-78
2022/01/30 15:10:44;;;;;;;5.88;1.77;;;;;;;;;;5030980;28;20508;-78
2022/01/30 15:13:13;;;;;;;5.85;1.92;;;;;;;;;;4998681;28;20038;-77
2022/01/30 15:15:39;;;;;;;8.38;1.90;;;;;;;;;;4998445;28;20074;-78
2022/01/30 15:18:12;;;;;;;5.95;2.55;;;;;;;;;;4979325;28;20044;-78
2022/01/30 15:20:38;;;;;;;4.95;2.25;;;;;;;;;;5014016;28;20125;-78
2022/01/30 15:23:03;;;;;;;4.78;2.28;;;;;;;;;;5014798;28;20112;-78
2022/01/30 15:25:29;;;;;;;5.35;1.45;;;;;;;;;;5031360;28;20049;-78
2022/01/30 15:27:54;;;;;;;8.38;2.28;;;;;;;;;;5029597;28;20420;-78
2022/01/30 15:30:20;;;;;;;5.43;1.70;;;;;;;;;;5014719;28;20151;-78
2022/01/30 15:32:45;;;;;;;5.38;1.75;;;;;;;;;;5014537;28;20120;-78
2022/01/30 15:35:10;;;;;;;7.68;2.13;;;;;;;;;;5019596;28;20046;-78
2022/01/30 15:37:36;;;;;;;8.57;2.05;;;;;;;;;;4995147;28;20505;-78
2022/01/30 15:40:02;;;;;;;7.80;2.20;;;;;;;;;;5011150;28;20049;-78